Terminal Aerodrome Forecast
Issued by NWS Topeka, KS

Home | Current Version | Previous Version | Text Only | Print | Product List | Glossary On
Versions: 1 2 3 4 5 6 7 8 9 10 11 12 13 14 15
243
FTUS43 KTOP 261726
TAFTOP
TAF
KTOP 261726Z 2618/2718 34011G19KT P6SM OVC025
     FM262000 34012G20KT P6SM OVC035
     FM270200 32007KT P6SM SCT045=

USA.gov is the U.S. government's official web portal to all federal, state and local government web resources and services.